Time;durP1;ratioP1;P1;durP2;ratioP2;P2;SDS_P1;SDS_P2;PMS_P1;PMS_P2;Temp;Humidity;BMP_temperature;BMP_pressure;BME280_temperature;BME280_humidity;BME280_pressure;Samples;Min_cycle;Max_cycle;Signal;HPM_P1;HPM_P2
2021/08/10 00:01:29;;;;;;;20.17;7.87;;;;;;;17.09;62.95;99338.33;125688;1092;103009;-74
2021/08/10 00:03:59;;;;;;;16.70;6.93;;;;;;;17.11;62.63;99339.03;125670;1096;103025;-74
2021/08/10 00:06:27;;;;;;;17.47;7.77;;;;;;;17.11;63.05;99327.42;125669;1095;102913;-74
2021/08/10 00:08:56;;;;;;;16.70;7.10;;;;;;;17.09;62.79;99327.58;125657;1093;103042;-75
2021/08/10 00:11:24;;;;;;;17.63;6.50;;;;;;;17.02;62.57;99331.84;125679;1093;103029;-75
2021/08/10 00:13:53;;;;;;;15.47;7.03;;;;;;;16.95;62.86;99334.22;125661;1093;102988;-76
2021/08/10 00:16:22;;;;;;;18.60;7.50;;;;;;;16.94;63.23;99332.52;125723;1093;102934;-74
2021/08/10 00:18:50;;;;;;;15.93;7.10;;;;;;;16.96;63.13;99327.89;125724;1093;103015;-74
2021/08/10 00:21:19;;;;;;;14.97;6.77;;;;;;;17.00;63.12;99339.20;125683;1093;102911;-74
2021/08/10 00:23:48;;;;;;;23.47;6.90;;;;;;;17.03;63.61;99338.05;125686;1093;101809;-76
2021/08/10 00:26:17;;;;;;;17.37;6.63;;;;;;;17.05;63.57;99338.75;125693;1093;102913;-74
2021/08/10 00:28:45;;;;;;;16.97;7.07;;;;;;;16.98;63.30;99329.58;125655;1092;103065;-73
2021/08/10 00:31:14;;;;;;;14.63;6.20;;;;;;;16.89;63.11;99336.66;125713;1093;102981;-73
2021/08/10 00:33:42;;;;;;;13.17;6.10;;;;;;;16.82;63.17;99329.17;125635;1092;103348;-73
2021/08/10 00:36:14;;;;;;;16.03;6.90;;;;;;;16.77;63.68;99331.45;125700;1093;103004;-73
2021/08/10 00:38:42;;;;;;;16.37;6.50;;;;;;;16.76;63.62;99329.75;125519;1096;103526;-73
2021/08/10 00:41:11;;;;;;;18.77;6.93;;;;;;;16.77;63.54;99330.61;125623;1092;103043;-73
2021/08/10 00:43:42;;;;;;;15.57;6.93;;;;;;;16.78;63.79;99325.08;125673;1093;103004;-74
2021/08/10 00:46:13;;;;;;;17.27;7.17;;;;;;;16.82;63.93;99331.86;125650;1093;102919;-75
2021/08/10 00:48:43;;;;;;;18.47;6.73;;;;;;;16.80;63.68;99331.16;125716;1093;103015;-74
2021/08/10 00:51:13;;;;;;;18.07;6.80;;;;;;;16.75;63.80;99333.42;125661;1092;103028;-73
2021/08/10 00:53:43;;;;;;;16.40;7.07;;;;;;;16.73;63.84;99337.27;125970;1092;103015;-74
2021/08/10 00:56:12;;;;;;;18.43;7.33;;;;;;;16.64;64.00;99334.45;125662;1093;103403;-74
2021/08/10 00:58:40;;;;;;;14.23;6.47;;;;;;;16.60;64.23;99330.35;125662;1093;103125;-74
2021/08/10 01:01:09;;;;;;;16.55;6.40;;;;;;;16.57;64.22;99330.64;125682;1093;103029;-74
2021/08/10 01:03:38;;;;;;;17.20;7.25;;;;;;;16.55;64.35;99331.79;125633;1095;102921;-74
2021/08/10 01:06:16;;;;;;;16.03;7.20;;;;;;;16.55;64.24;99335.30;125605;1095;102922;-74
2021/08/10 01:08:57;;;;;;;14.60;6.37;;;;;;;16.56;64.41;99338.85;125705;1096;103001;-74
2021/08/10 01:12:01;;;;;;;16.30;7.13;;;;;;;16.56;64.51;99347.74;125688;1095;103170;-75
2021/08/10 01:14:56;;;;;;;13.50;6.33;;;;;;;16.61;64.59;99350.02;125603;1096;103348;-74
2021/08/10 01:17:32;;;;;;;13.93;6.47;;;;;;;16.66;64.75;99351.27;125665;1096;103060;-74
2021/08/10 01:20:19;;;;;;;15.90;6.90;;;;;;;16.70;64.54;99349.16;125669;1096;103017;-74
2021/08/10 01:22:52;;;;;;;15.77;6.80;;;;;;;16.70;64.90;99367.95;125675;1095;102943;-74
2021/08/10 01:25:39;;;;;;;16.20;7.00;;;;;;;16.68;64.83;99372.63;125675;1096;103022;-73
2021/08/10 01:28:44;;;;;;;17.10;6.80;;;;;;;16.67;64.98;99369.08;125691;1096;103099;-74
2021/08/10 01:31:32;;;;;;;13.50;6.50;;;;;;;16.70;65.03;99354.53;125582;1095;103092;-75
2021/08/10 01:34:14;;;;;;;16.17;6.90;;;;;;;16.73;64.95;99342.64;125641;1095;102936;-74
2021/08/10 01:36:46;;;;;;;13.20;6.43;;;;;;;16.73;64.97;99340.78;125663;1095;102945;-75
2021/08/10 01:39:15;;;;;;;17.13;7.03;;;;;;;16.75;65.06;99332.59;125660;1096;102925;-74
2021/08/10 01:41:45;;;;;;;15.30;7.07;;;;;;;16.75;65.13;99320.00;125686;1096;102919;-74
2021/08/10 01:44:16;;;;;;;16.57;7.03;;;;;;;16.75;65.16;99311.94;125643;1095;103009;-75
2021/08/10 01:46:47;;;;;;;19.40;7.40;;;;;;;16.73;65.00;99316.61;125687;1096;102942;-75
2021/08/10 01:49:16;;;;;;;18.73;8.30;;;;;;;16.68;65.08;99318.91;125697;1093;102942;-74
2021/08/10 01:51:46;;;;;;;19.10;7.03;;;;;;;16.56;64.79;99318.20;125596;1095;103017;-74
2021/08/10 01:54:16;;;;;;;15.60;6.97;;;;;;;16.43;65.15;99317.68;125682;1094;103055;-75
2021/08/10 01:56:45;;;;;;;18.27;7.40;;;;;;;16.44;65.42;99335.48;125658;1093;103008;-74
2021/08/10 01:59:18;;;;;;;18.17;7.03;;;;;;;16.45;65.23;99332.64;125719;1093;102935;-76
2021/08/10 02:01:49;;;;;;;14.73;6.95;;;;;;;16.37;65.19;99333.36;125684;1095;103010;-75
2021/08/10 02:04:21;;;;;;;16.10;7.10;;;;;;;16.29;65.25;99340.45;125592;1092;102997;-73
2021/08/10 02:06:51;;;;;;;15.67;6.57;;;;;;;16.17;65.64;99337.89;126045;1093;103348;-74
2021/08/10 02:09:21;;;;;;;14.03;7.10;;;;;;;16.11;65.56;99338.45;125689;1093;103000;-74
2021/08/10 02:11:53;;;;;;;17.97;7.57;;;;;;;16.11;65.75;99335.77;125643;1091;102982;-74
2021/08/10 02:14:25;;;;;;;16.70;7.10;;;;;;;16.13;65.96;99331.11;125684;1093;102936;-74
2021/08/10 02:17:01;;;;;;;16.63;7.18;;;;;;;16.18;66.06;99325.31;125651;1093;103543;-74
2021/08/10 02:19:30;;;;;;;18.35;7.50;;;;;;;16.23;65.96;99328.42;125700;1093;102997;-74
2021/08/10 02:22:11;;;;;;;15.07;6.90;;;;;;;16.27;66.05;99329.00;125689;1093;104494;-75
2021/08/10 02:24:47;;;;;;;17.57;7.17;;;;;;;16.31;66.23;99327.70;125640;1096;103041;-75
2021/08/10 02:27:32;;;;;;;14.53;6.27;;;;;;;16.30;65.95;99331.41;125695;1097;102915;-74
2021/08/10 02:30:31;;;;;;;14.67;6.87;;;;;;;16.10;65.82;99328.70;125699;1093;103031;-76
2021/08/10 02:33:06;;;;;;;18.23;7.43;;;;;;;16.03;66.12;99322.20;125722;1096;103035;-75
2021/08/10 02:35:37;;;;;;;18.50;7.45;;;;;;;16.04;66.47;99321.22;125690;1097;103068;-74
2021/08/10 02:38:10;;;;;;;17.40;7.10;;;;;;;16.07;66.31;99316.44;125673;1092;103036;-73
2021/08/10 02:40:40;;;;;;;15.73;7.00;;;;;;;16.05;66.26;99321.09;125687;1093;103040;-73
2021/08/10 02:43:10;;;;;;;16.60;6.80;;;;;;;15.98;66.19;99324.45;125672;1093;103415;-73
2021/08/10 02:45:38;;;;;;;16.60;7.10;;;;;;;15.86;66.06;99312.98;125701;1093;103007;-73
2021/08/10 02:48:06;;;;;;;15.37;6.73;;;;;;;15.71;66.16;99325.95;125699;1093;103001;-73
2021/08/10 02:50:36;;;;;;;18.33;7.77;;;;;;;15.60;66.26;99318.89;125675;1096;102986;-73
2021/08/10 02:53:06;;;;;;;15.63;7.73;;;;;;;15.60;66.63;99327.77;125658;1093;103062;-72
2021/08/10 02:55:39;;;;;;;22.10;8.30;;;;;;;15.61;66.68;99321.41;125658;1093;102997;-74
2021/08/10 02:58:30;;;;;;;21.00;8.10;;;;;;;15.62;66.84;99322.28;125679;1093;103020;-73
2021/08/10 03:01:07;;;;;;;15.83;7.77;;;;;;;15.67;66.90;99319.17;125663;1093;103034;-72
2021/08/10 03:03:38;;;;;;;18.57;7.37;;;;;;;15.68;66.89;99324.41;125679;1093;103045;-73
2021/08/10 03:06:10;;;;;;;20.70;8.10;;;;;;;15.62;66.84;99328.47;125683;1096;102920;-71
2021/08/10 03:08:45;;;;;;;17.37;7.90;;;;;;;15.54;66.86;99322.11;125663;1093;103062;-73
2021/08/10 03:11:15;;;;;;;18.90;7.40;;;;;;;15.43;67.34;99315.88;125660;1096;103074;-72
2021/08/10 03:13:46;;;;;;;18.10;8.00;;;;;;;15.31;67.19;99316.95;125729;1096;102903;-73
2021/08/10 03:16:17;;;;;;;16.03;7.13;;;;;;;15.22;67.69;99315.95;125659;1096;102976;-73
2021/08/10 03:18:52;;;;;;;17.03;7.53;;;;;;;15.18;67.74;99318.06;125752;1093;102998;-73
2021/08/10 03:21:23;;;;;;;17.80;7.77;;;;;;;15.20;67.94;99317.91;125669;1093;103429;-75
2021/08/10 03:23:54;;;;;;;17.50;7.77;;;;;;;15.24;67.94;99311.30;125718;1093;103376;-76
2021/08/10 03:26:26;;;;;;;15.47;7.00;;;;;;;15.26;67.85;99309.34;125694;1093;103162;-75
2021/08/10 03:28:55;;;;;;;17.30;8.03;;;;;;;15.21;67.87;99297.34;125666;1093;102952;-75
2021/08/10 03:31:27;;;;;;;19.23;8.33;;;;;;;15.16;67.99;99303.09;125714;1093;103007;-75
2021/08/10 03:33:57;;;;;;;20.27;7.97;;;;;;;15.09;68.00;99299.25;125686;1093;104076;-75
2021/08/10 03:36:26;;;;;;;20.70;8.30;;;;;;;15.09;68.23;99309.97;125667;1092;102938;-76
2021/08/10 03:38:56;;;;;;;18.40;7.87;;;;;;;15.12;68.20;99305.20;125670;1093;103114;-75
2021/08/10 03:41:27;;;;;;;16.23;7.80;;;;;;;15.18;68.61;99303.80;125669;1093;102913;-75
2021/08/10 03:43:56;;;;;;;18.20;8.40;;;;;;;15.26;68.44;99305.83;125677;1093;102935;-76
2021/08/10 03:46:30;;;;;;;19.43;8.50;;;;;;;15.35;68.72;99309.51;125670;1093;103007;-75
2021/08/10 03:49:00;;;;;;;18.60;8.60;;;;;;;15.41;68.76;99304.44;125687;1093;102913;-74
2021/08/10 03:51:31;;;;;;;16.13;7.60;;;;;;;15.45;68.55;99310.39;125648;1093;103068;-75
2021/08/10 03:53:59;;;;;;;17.33;7.33;;;;;;;15.48;68.85;99310.12;125637;1093;103087;-76
2021/08/10 03:56:29;;;;;;;16.33;6.93;;;;;;;15.55;68.83;99310.41;125659;1093;103039;-75
2021/08/10 03:59:00;;;;;;;16.00;7.70;;;;;;;15.55;69.01;99297.83;125661;1095;103023;-75
2021/08/10 04:01:32;;;;;;;19.33;7.73;;;;;;;15.60;68.93;99303.63;125692;1094;103095;-74
2021/08/10 04:04:03;;;;;;;19.03;7.90;;;;;;;15.65;68.88;99303.23;125702;1095;102919;-75
2021/08/10 04:06:34;;;;;;;17.23;7.77;;;;;;;15.68;68.93;99310.14;125627;1096;102913;-79
2021/08/10 04:09:04;;;;;;;15.93;6.80;;;;;;;15.73;68.98;99308.73;125648;1095;103009;-76
2021/08/10 04:11:33;;;;;;;18.70;7.70;;;;;;;15.77;69.05;99304.78;125646;1095;102923;-75
2021/08/10 04:14:01;;;;;;;15.80;7.33;;;;;;;15.82;69.01;99314.25;125650;1095;102917;-76
2021/08/10 04:16:33;;;;;;;18.10;7.40;;;;;;;15.87;69.09;99315.58;125687;1096;103090;-74
2021/08/10 04:19:02;;;;;;;14.67;7.57;;;;;;;15.92;69.20;99309.78;125649;1096;102916;-76
2021/08/10 04:21:33;;;;;;;15.60;7.40;;;;;;;16.00;69.26;99317.12;125657;1095;102948;-75
2021/08/10 04:24:05;;;;;;;14.83;7.40;;;;;;;16.04;69.27;99314.03;125678;1096;102948;-77
2021/08/10 04:26:36;;;;;;;16.87;7.60;;;;;;;16.13;69.25;99319.52;125668;1093;102917;-78
2021/08/10 04:29:07;;;;;;;18.83;7.20;;;;;;;16.21;69.38;99323.20;125652;1094;103448;-79
2021/08/10 04:31:35;;;;;;;16.60;7.43;;;;;;;16.29;69.41;99327.02;125665;1096;103018;-79
2021/08/10 04:34:04;;;;;;;18.53;7.20;;;;;;;16.34;69.45;99328.28;125739;1094;102913;-80
2021/08/10 04:36:33;;;;;;;16.00;7.17;;;;;;;16.41;69.60;99325.86;125692;1095;102995;-79
2021/08/10 04:39:02;;;;;;;15.80;7.70;;;;;;;16.46;69.49;99330.82;125715;1095;103091;-80
2021/08/10 04:41:32;;;;;;;18.80;8.00;;;;;;;16.53;69.48;99326.55;125689;1096;102997;-79
2021/08/10 04:44:01;;;;;;;16.40;8.23;;;;;;;16.60;69.57;99330.35;125710;1095;102973;-82
2021/08/10 04:46:30;;;;;;;17.77;7.90;;;;;;;16.68;69.52;99332.34;125700;1095;103101;-82
2021/08/10 04:48:58;;;;;;;18.43;7.83;;;;;;;16.74;69.58;99328.22;125740;1096;103044;-82
2021/08/10 04:51:26;;;;;;;17.07;7.37;;;;;;;16.81;69.50;99326.65;125713;1094;103064;-80
2021/08/10 04:53:55;;;;;;;14.77;7.63;;;;;;;16.87;69.77;99320.70;125692;1096;102994;-79
2021/08/10 04:56:25;;;;;;;17.83;7.47;;;;;;;16.94;69.53;99318.26;125648;1095;103035;-78
2021/08/10 04:58:53;;;;;;;19.43;7.30;;;;;;;17.00;69.40;99327.59;125721;1096;103106;-79
2021/08/10 05:01:21;;;;;;;16.63;7.60;;;;;;;17.04;69.64;99319.11;125756;1095;102938;-79
2021/08/10 05:03:50;;;;;;;18.03;8.07;;;;;;;17.07;69.58;99321.50;125686;1094;102937;-80
2021/08/10 05:06:19;;;;;;;17.87;7.70;;;;;;;17.12;69.95;99318.36;125731;1094;102940;-81
2021/08/10 05:08:47;;;;;;;18.67;7.13;;;;;;;17.17;69.65;99321.45;125662;1096;102149;-79
2021/08/10 05:11:15;;;;;;;17.97;8.33;;;;;;;17.19;69.89;99321.30;125691;1097;102726;-77
2021/08/10 05:13:44;;;;;;;33.33;20.27;;;;;;;17.23;69.79;99323.55;125608;1096;103017;-80
2021/08/10 05:16:12;;;;;;;37.27;22.87;;;;;;;17.27;69.96;99321.41;125658;1095;102935;-79
2021/08/10 05:18:40;;;;;;;24.37;13.67;;;;;;;17.30;69.97;99320.28;125749;1093;103034;-78
2021/08/10 05:21:09;;;;;;;18.67;8.37;;;;;;;17.31;69.69;99316.59;125580;1096;103022;-78
2021/08/10 05:23:37;;;;;;;19.17;8.40;;;;;;;17.35;70.06;99323.34;125731;1094;103496;-78
2021/08/10 05:26:06;;;;;;;17.30;7.97;;;;;;;17.39;69.90;99308.60;125654;1096;102943;-78
2021/08/10 05:28:34;;;;;;;16.03;7.53;;;;;;;17.47;69.90;99313.25;125684;1096;103008;-79
2021/08/10 05:31:02;;;;;;;14.10;7.60;;;;;;;17.51;70.20;99310.10;125712;1096;102923;-78
2021/08/10 05:33:30;;;;;;;15.93;7.50;;;;;;;17.56;69.72;99312.33;125685;1096;102913;-79
2021/08/10 05:35:59;;;;;;;15.40;7.27;;;;;;;17.51;69.71;99315.48;125688;1096;103148;-78
2021/08/10 05:38:27;;;;;;;17.50;8.07;;;;;;;17.41;69.41;99314.67;125629;1095;103078;-79
2021/08/10 05:40:56;;;;;;;15.27;8.00;;;;;;;17.33;69.88;99317.27;125689;1095;103178;-78
2021/08/10 05:43:24;;;;;;;19.33;8.63;;;;;;;17.30;69.99;99318.42;125662;1095;102953;-80
2021/08/10 05:45:53;;;;;;;22.87;13.27;;;;;;;17.30;69.93;99322.97;125638;1095;103100;-80
2021/08/10 05:48:23;;;;;;;22.40;10.73;;;;;;;17.29;70.07;99318.59;125722;1094;103077;-78
2021/08/10 05:50:51;;;;;;;20.93;11.37;;;;;;;17.32;70.27;99316.43;125698;1096;103103;-79
2021/08/10 05:53:20;;;;;;;22.07;11.33;;;;;;;17.39;70.21;99325.59;125700;1096;103038;-79
2021/08/10 05:55:48;;;;;;;23.63;11.37;;;;;;;17.47;70.06;99324.01;125724;1096;103061;-80
2021/08/10 05:58:19;;;;;;;20.73;10.33;;;;;;;17.54;70.48;99333.14;125647;1096;103057;-78
2021/08/10 06:00:47;;;;;;;21.07;10.40;;;;;;;17.63;69.99;99339.48;125652;1097;103129;-78
2021/08/10 06:03:15;;;;;;;18.40;8.90;;;;;;;17.71;70.38;99334.20;125652;1093;102937;-75
2021/08/10 06:05:45;;;;;;;17.83;8.63;;;;;;;17.77;70.25;99330.05;125706;1093;102911;-77
2021/08/10 06:08:13;;;;;;;22.47;8.33;;;;;;;17.83;70.51;99319.52;125710;1093;102936;-78
2021/08/10 06:10:42;;;;;;;19.07;9.77;;;;;;;17.91;70.49;99320.60;125668;1092;103064;-79
2021/08/10 06:13:10;;;;;;;18.47;8.77;;;;;;;18.01;70.07;99318.72;125700;1093;103065;-79
2021/08/10 06:15:42;;;;;;;20.10;8.60;;;;;;;18.09;70.21;99316.11;125672;1093;102929;-80
2021/08/10 06:18:10;;;;;;;18.97;9.00;;;;;;;18.19;70.28;99307.95;125717;1094;103100;-82
2021/08/10 06:20:39;;;;;;;20.60;9.20;;;;;;;18.29;70.53;99305.16;125710;1093;103021;-81
2021/08/10 06:23:07;;;;;;;17.93;8.63;;;;;;;18.34;70.19;99291.25;125703;1093;102998;-80
2021/08/10 06:25:35;;;;;;;22.03;9.53;;;;;;;18.30;70.19;99301.47;125708;1094;103025;-79
2021/08/10 06:28:04;;;;;;;24.60;9.33;;;;;;;18.28;70.05;99316.93;125685;1093;102926;-80
2021/08/10 06:30:32;;;;;;;25.57;10.40;;;;;;;18.29;70.17;99318.63;125757;1093;101564;-80
2021/08/10 06:33:01;;;;;;;22.83;10.23;;;;;;;18.28;70.31;99327.70;125708;1096;102935;-81
2021/08/10 06:35:30;;;;;;;24.37;11.10;;;;;;;18.29;70.45;99330.25;125628;1094;102991;-79
2021/08/10 06:37:59;;;;;;;25.87;11.60;;;;;;;18.31;70.53;99340.86;125701;1093;103348;-78
2021/08/10 06:40:27;;;;;;;28.67;12.93;;;;;;;18.38;70.40;99341.93;125670;1095;102942;-78
2021/08/10 06:42:55;;;;;;;23.37;11.40;;;;;;;18.48;70.48;99346.39;125703;1096;103068;-78
2021/08/10 06:45:24;;;;;;;26.83;11.73;;;;;;;18.54;70.35;99343.91;125665;1093;102988;-79
2021/08/10 06:47:53;;;;;;;28.40;13.43;;;;;;;18.62;70.40;99343.11;125716;1096;103370;-79
2021/08/10 06:50:22;;;;;;;29.97;12.67;;;;;;;18.69;70.71;99340.66;125697;1096;102991;-79
2021/08/10 06:52:51;;;;;;;25.83;12.63;;;;;;;18.74;70.44;99341.03;125686;1093;102998;-79
2021/08/10 06:55:22;;;;;;;25.97;12.13;;;;;;;18.79;70.33;99335.98;125711;1096;102925;-78
2021/08/10 06:57:50;;;;;;;27.03;12.47;;;;;;;18.85;70.58;99338.05;125706;1093;103412;-79
2021/08/10 07:00:18;;;;;;;28.07;13.60;;;;;;;18.88;70.44;99334.21;125674;1096;103064;-79
2021/08/10 07:02:48;;;;;;;27.90;14.70;;;;;;;18.92;70.80;99334.73;125757;1093;103096;-78
2021/08/10 07:05:20;;;;;;;33.87;17.27;;;;;;;18.98;70.42;99339.52;125671;1094;102932;-77
2021/08/10 07:07:48;;;;;;;34.67;18.33;;;;;;;19.02;70.81;99332.80;125748;1093;102917;-74
2021/08/10 07:10:17;;;;;;;32.85;18.40;;;;;;;19.09;70.53;99338.39;125665;1095;102921;-76
2021/08/10 07:12:45;;;;;;;35.63;17.37;;;;;;;19.16;70.75;99334.88;125636;1096;104116;-73
2021/08/10 07:15:14;;;;;;;27.73;14.77;;;;;;;19.22;70.42;99346.03;125662;1093;102910;-73
2021/08/10 07:17:43;;;;;;;28.13;14.27;;;;;;;19.18;70.52;99337.44;125628;1091;102942;-73
2021/08/10 07:20:12;;;;;;;33.67;14.87;;;;;;;19.15;70.70;99332.36;125654;1092;102910;-73
2021/08/10 07:22:41;;;;;;;26.90;13.90;;;;;;;19.14;70.56;99334.23;125631;1096;103007;-73
2021/08/10 07:25:10;;;;;;;31.17;14.67;;;;;;;19.17;70.31;99336.58;125648;1096;103182;-72
2021/08/10 07:27:38;;;;;;;26.57;12.37;;;;;;;19.21;70.26;99330.86;125658;1096;102940;-73
2021/08/10 07:30:07;;;;;;;24.47;11.67;;;;;;;19.28;70.54;99338.16;125642;1096;103071;-73
2021/08/10 07:32:35;;;;;;;25.67;11.50;;;;;;;19.42;70.53;99341.23;125672;1096;102948;-73
2021/08/10 07:35:04;;;;;;;21.37;10.27;;;;;;;19.55;70.40;99343.50;125666;1096;102929;-72
2021/08/10 07:37:41;;;;;;;22.20;11.30;;;;;;;19.75;70.53;99346.77;125608;1096;103025;-72
2021/08/10 07:40:13;;;;;;;21.10;9.87;;;;;;;20.02;70.40;99342.95;125638;1096;102923;-72
2021/08/10 07:42:42;;;;;;;22.85;9.75;;;;;;;20.16;70.44;99337.92;125669;1096;102916;-78
2021/08/10 07:45:12;;;;;;;21.67;10.43;;;;;;;21.08;69.59;99337.69;125680;1095;102916;-68
2021/08/10 07:47:40;;;;;;;23.37;10.30;;;;;;;21.89;69.43;99333.14;125703;1095;102945;-74
2021/08/10 07:50:10;;;;;;;28.63;11.97;;;;;;;22.48;70.04;99332.56;125625;1096;103064;-79
2021/08/10 07:52:39;;;;;;;22.17;9.70;;;;;;;23.18;69.97;99327.78;125651;1093;103003;-72
2021/08/10 07:55:09;;;;;;;21.47;8.90;;;;;;;24.57;68.94;99327.03;125666;1093;102911;-74
2021/08/10 07:57:43;;;;;;;18.40;8.27;;;;;;;26.37;68.17;99317.22;125743;1093;103087;-71
2021/08/10 08:00:11;;;;;;;20.30;8.23;;;;;;;27.70;67.92;99320.76;125696;1094;103378;-71
2021/08/10 08:02:40;;;;;;;21.83;7.90;;;;;;;28.90;67.82;99320.97;125708;1093;103598;-79
2021/08/10 08:05:09;;;;;;;17.13;6.83;;;;;;;30.07;66.54;99323.80;125687;1093;102998;-76
2021/08/10 08:07:38;;;;;;;11.77;6.10;;;;;;;30.94;66.42;99316.05;125633;1093;103396;-73
2021/08/10 08:10:08;;;;;;;14.80;5.53;;;;;;;31.54;66.30;99322.27;125670;1093;103036;-74
2021/08/10 08:12:36;;;;;;;14.70;5.50;;;;;;;31.90;66.54;99324.93;125658;1093;103041;-77
2021/08/10 08:15:06;;;;;;;12.73;5.97;;;;;;;32.64;66.29;99315.75;125614;1093;103028;-76
2021/08/10 08:17:35;;;;;;;11.90;5.23;;;;;;;33.36;65.41;99317.87;125706;1092;102940;-81
2021/08/10 08:20:19;;;;;;;11.60;5.83;;;;;;;33.94;65.72;99315.54;125643;1095;103009;-74
2021/08/10 08:22:47;;;;;;;13.80;5.20;;;;;;;34.43;64.97;99320.14;125660;1093;103437;-76
2021/08/10 08:25:17;;;;;;;12.33;5.00;;;;;;;34.31;63.41;99327.77;125654;1093;102995;-78
2021/08/10 08:27:46;;;;;;;11.80;4.87;;;;;;;34.34;63.86;99318.11;125658;1093;102994;-71
2021/08/10 08:30:15;;;;;;;18.27;6.63;;;;;;;34.91;63.63;99322.13;125622;1093;102934;-77
2021/08/10 08:32:44;;;;;;;13.70;5.10;;;;;;;35.24;62.41;99313.78;125622;1093;102943;-73
2021/08/10 08:35:12;;;;;;;9.03;4.30;;;;;;;35.19;62.40;99309.07;125670;1093;102935;-74
2021/08/10 08:37:40;;;;;;;9.77;4.43;;;;;;;35.45;62.51;99310.01;125588;1094;102998;-75
2021/08/10 08:40:10;;;;;;;12.23;5.30;;;;;;;35.65;62.54;99305.66;125646;1096;103076;-75
2021/08/10 08:42:41;;;;;;;11.50;5.50;;;;;;;35.63;61.83;99302.33;125649;1096;102947;-74
2021/08/10 08:45:11;;;;;;;7.23;4.17;;;;;;;34.39;59.56;99302.44;125664;1095;102920;-74
2021/08/10 08:47:48;;;;;;;8.33;4.53;;;;;;;33.82;60.22;99296.36;125668;1095;103052;-74
2021/08/10 08:50:19;;;;;;;6.33;3.70;;;;;;;33.26;59.17;99299.28;125652;1093;102984;-75
2021/08/10 08:52:53;;;;;;;6.90;3.67;;;;;;;32.66;59.09;99293.46;125627;1093;103476;-74
2021/08/10 08:55:21;;;;;;;5.50;3.50;;;;;;;32.53;59.03;99299.33;125636;1094;103012;-74
2021/08/10 08:57:50;;;;;;;4.77;3.20;;;;;;;32.19;58.92;99287.22;125634;1093;103046;-74
2021/08/10 09:00:19;;;;;;;6.57;3.50;;;;;;;32.39;58.30;99285.90;125723;1093;102937;-75
2021/08/10 09:02:48;;;;;;;5.27;3.20;;;;;;;32.74;57.60;99284.78;125702;1096;103073;-72
2021/08/10 09:05:17;;;;;;;5.13;2.93;;;;;;;33.12;57.32;99282.30;125655;1093;103023;-74
2021/08/10 09:07:46;;;;;;;5.03;3.10;;;;;;;33.29;56.54;99282.23;125636;1093;103038;-74
2021/08/10 09:10:19;;;;;;;4.73;2.90;;;;;;;33.77;56.21;99287.22;125647;1093;103348;-75
2021/08/10 09:12:52;;;;;;;5.47;3.23;;;;;;;34.14;55.71;99286.48;125594;1093;103055;-75
2021/08/10 09:15:46;;;;;;;4.97;3.23;;;;;;;34.42;55.21;99282.58;125599;1093;102917;-75
2021/08/10 09:18:22;;;;;;;9.07;3.17;;;;;;;34.79;55.14;99274.56;125769;1093;102897;-75
2021/08/10 09:21:08;;;;;;;6.27;2.90;;;;;;;35.25;54.66;99268.45;125623;1093;103088;-74
2021/08/10 09:23:44;;;;;;;2.70;2.43;;;;;;;35.23;54.72;99268.73;125611;1093;103074;-75
2021/08/10 09:26:23;;;;;;;5.47;2.70;;;;;;;35.28;53.31;99276.20;126360;1093;102945;-75
2021/08/10 09:29:00;;;;;;;4.47;2.70;;;;;;;35.45;53.59;99270.45;125686;1093;103493;-75
2021/08/10 09:31:40;;;;;;;3.83;2.50;;;;;;;35.33;53.41;99268.74;125668;1093;103425;-74
2021/08/10 09:34:25;;;;;;;4.10;2.63;;;;;;;35.61;52.94;99274.11;125693;1093;103008;-74
2021/08/10 09:36:56;;;;;;;5.97;2.90;;;;;;;35.15;52.80;99274.77;125688;1093;103023;-74
2021/08/10 09:39:30;;;;;;;3.47;3.00;;;;;;;35.23;51.89;99262.36;125730;1093;102945;-74
2021/08/10 09:42:05;;;;;;;4.97;3.00;;;;;;;35.53;51.96;99258.89;125686;1093;103015;-75
2021/08/10 09:44:35;;;;;;;5.15;2.70;;;;;;;35.59;51.12;99262.48;125621;1093;103077;-75
2021/08/10 09:47:04;;;;;;;6.10;3.20;;;;;;;35.72;51.14;99259.20;125670;1093;103144;-75
2021/08/10 09:49:45;;;;;;;4.87;2.80;;;;;;;35.80;50.31;99257.02;125675;1096;103004;-74
2021/08/10 09:52:24;;;;;;;4.93;2.80;;;;;;;35.88;50.29;99259.20;125697;1093;102923;-75
2021/08/10 09:55:13;;;;;;;3.20;2.80;;;;;;;35.51;50.06;99263.02;125684;1093;102910;-74
2021/08/10 09:57:58;;;;;;;2.87;2.57;;;;;;;34.94;49.37;99255.28;125693;1093;103073;-74
2021/08/10 10:00:39;;;;;;;3.80;2.80;;;;;;;35.06;49.29;99260.61;125617;1096;102974;-74
2021/08/10 10:03:34;;;;;;;4.83;2.73;;;;;;;34.98;49.21;99250.92;125671;1093;103405;-75
2021/08/10 10:06:05;;;;;;;5.07;2.80;;;;;;;34.80;48.54;99252.18;125664;1094;103035;-74
2021/08/10 10:08:35;;;;;;;3.60;3.00;;;;;;;34.50;48.83;99256.43;125684;1093;102991;-74
2021/08/10 10:11:03;;;;;;;4.50;3.00;;;;;;;34.13;47.85;99246.19;125639;1093;103056;-75
2021/08/10 10:13:35;;;;;;;3.97;3.47;;;;;;;33.82;47.90;99248.66;125662;1092;103052;-74
2021/08/10 10:16:08;;;;;;;5.87;3.23;;;;;;;33.54;47.38;99247.80;125633;1093;102916;-75
2021/08/10 10:18:40;;;;;;;6.37;3.20;;;;;;;33.24;47.68;99241.65;125710;1093;103009;-74
2021/08/10 10:21:13;;;;;;;4.90;3.20;;;;;;;33.02;47.13;99235.33;125684;1094;102920;-75
2021/08/10 10:23:44;;;;;;;4.43;3.18;;;;;;;32.62;46.87;99238.08;125645;1092;102937;-75
2021/08/10 10:26:14;;;;;;;6.17;3.00;;;;;;;32.45;46.68;99238.11;125659;1093;102914;-77
2021/08/10 10:28:45;;;;;;;6.77;3.70;;;;;;;32.19;46.14;99234.09;125628;1093;102904;-76
2021/08/10 10:31:15;;;;;;;8.70;3.03;;;;;;;31.76;46.14;99233.66;125653;1093;102966;-76
2021/08/10 10:33:45;;;;;;;7.70;3.30;;;;;;;31.57;46.01;99231.08;125646;1093;103096;-75
2021/08/10 10:36:16;;;;;;;5.60;2.90;;;;;;;31.38;45.67;99221.38;125582;1093;103086;-76
2021/08/10 10:38:46;;;;;;;8.60;3.60;;;;;;;31.18;45.59;99228.13;125644;1093;103009;-74
2021/08/10 10:41:17;;;;;;;5.30;3.10;;;;;;;31.05;45.56;99223.72;125640;1093;102942;-77
2021/08/10 10:43:55;;;;;;;6.10;3.60;;;;;;;30.78;45.04;99223.41;125607;1093;102935;-78
2021/08/10 10:46:27;;;;;;;7.90;3.50;;;;;;;30.41;44.85;99225.33;125653;1093;103093;-77
2021/08/10 10:48:57;;;;;;;7.87;3.83;;;;;;;29.94;44.72;99220.61;125640;1096;103012;-76
2021/08/10 10:51:32;;;;;;;8.17;3.47;;;;;;;29.74;44.69;99215.44;125700;1094;102920;-75
2021/08/10 10:54:27;;;;;;;5.13;3.60;;;;;;;29.69;45.10;99218.86;125657;1096;103067;-76
2021/08/10 10:57:00;;;;;;;6.10;3.43;;;;;;;29.78;44.83;99224.84;125725;1093;102941;-76
2021/08/10 10:59:37;;;;;;;7.47;3.43;;;;;;;29.73;44.96;99221.14;125703;1093;102910;-75
2021/08/10 11:02:17;;;;;;;6.37;3.47;;;;;;;29.61;44.95;99212.89;125640;1096;103044;-75
2021/08/10 11:05:10;;;;;;;8.60;3.70;;;;;;;29.55;44.55;99214.64;125669;1092;102938;-76
2021/08/10 11:07:51;;;;;;;5.50;3.17;;;;;;;29.54;44.39;99204.78;125603;1093;103007;-76
2021/08/10 11:10:22;;;;;;;;;;;;;;;29.48;44.42;99205.70;125674;1093;102910;-75
2021/08/10 11:12:51;;;;;;;5.87;3.43;;;;;;;29.33;44.06;99206.09;125686;1093;103038;-77
2021/08/10 11:15:22;;;;;;;7.10;3.33;;;;;;;29.22;44.47;99203.06;126418;1093;100784;-77
2021/08/10 11:18:09;;;;;;;6.57;3.20;;;;;;;29.12;43.96;99197.29;125706;1093;103023;-77
2021/08/10 11:20:43;;;;;;;6.10;3.70;;;;;;;29.15;44.55;99196.83;125670;1093;102998;-77
2021/08/10 11:23:18;;;;;;;5.93;3.30;;;;;;;29.08;43.98;99191.45;125642;1093;103000;-69
2021/08/10 11:26:05;;;;;;;7.20;3.20;;;;;;;29.05;44.07;99189.17;125675;1093;103036;-76
2021/08/10 11:28:43;;;;;;;8.80;3.60;;;;;;;29.12;44.33;99178.13;125644;1094;103058;-76
2021/08/10 11:31:12;;;;;;;7.97;3.47;;;;;;;29.24;44.29;99180.91;125738;1093;103036;-76